sensor_id;sensor_type;location;lat;lon;timestamp;P1;durP1;ratioP1;P2;durP2;ratioP2
76962;SDS011;65902;51.452;7.198;2023-03-21T00:00:08;14.48;;;7.50;;
76962;SDS011;65902;51.452;7.198;2023-03-21T00:01:13;12.90;;;7.10;;
76962;SDS011;65902;51.452;7.198;2023-03-21T00:02:14;12.98;;;6.38;;
76962;SDS011;65902;51.452;7.198;2023-03-21T00:03:15;13.48;;;6.55;;
76962;SDS011;65902;51.452;7.198;2023-03-21T00:05:26;11.75;;;7.20;;
76962;SDS011;65902;51.452;7.198;2023-03-21T00:06:27;13.85;;;7.25;;
76962;SDS011;65902;51.452;7.198;2023-03-21T00:07:27;10.88;;;7.63;;
76962;SDS011;65902;51.452;7.198;2023-03-21T00:08:28;13.73;;;6.47;;
76962;SDS011;65902;51.452;7.198;2023-03-21T00:09:29;14.25;;;7.00;;
76962;SDS011;65902;51.452;7.198;2023-03-21T00:10:30;10.63;;;6.70;;
76962;SDS011;65902;51.452;7.198;2023-03-21T00:11:33;13.00;;;6.57;;
76962;SDS011;65902;51.452;7.198;2023-03-21T00:12:34;17.15;;;7.03;;
76962;SDS011;65902;51.452;7.198;2023-03-21T00:13:38;17.13;;;6.07;;
76962;SDS011;65902;51.452;7.198;2023-03-21T00:14:45;11.48;;;6.88;;
76962;SDS011;65902;51.452;7.198;2023-03-21T00:15:50;14.50;;;6.20;;
76962;SDS011;65902;51.452;7.198;2023-03-21T00:16:54;15.63;;;7.32;;
76962;SDS011;65902;51.452;7.198;2023-03-21T00:19:02;12.75;;;6.65;;
76962;SDS011;65902;51.452;7.198;2023-03-21T00:20:05;15.07;;;6.75;;
76962;SDS011;65902;51.452;7.198;2023-03-21T00:21:11;13.75;;;6.13;;
76962;SDS011;65902;51.452;7.198;2023-03-21T00:22:14;11.45;;;5.85;;
76962;SDS011;65902;51.452;7.198;2023-03-21T00:23:17;9.68;;;6.20;;
76962;SDS011;65902;51.452;7.198;2023-03-21T00:24:18;12.32;;;6.07;;
76962;SDS011;65902;51.452;7.198;2023-03-21T00:25:18;11.93;;;6.45;;
76962;SDS011;65902;51.452;7.198;2023-03-21T00:26:21;16.70;;;7.10;;
76962;SDS011;65902;51.452;7.198;2023-03-21T00:27:24;13.90;;;5.68;;
76962;SDS011;65902;51.452;7.198;2023-03-21T00:28:25;17.48;;;6.93;;
76962;SDS011;65902;51.452;7.198;2023-03-21T00:29:26;8.88;;;5.68;;
76962;SDS011;65902;51.452;7.198;2023-03-21T00:30:29;12.55;;;6.82;;
76962;SDS011;65902;51.452;7.198;2023-03-21T00:31:30;10.98;;;5.47;;
76962;SDS011;65902;51.452;7.198;2023-03-21T00:32:30;9.00;;;5.75;;
76962;SDS011;65902;51.452;7.198;2023-03-21T00:33:31;11.73;;;6.28;;
76962;SDS011;65902;51.452;7.198;2023-03-21T00:34:34;15.00;;;6.20;;
76962;SDS011;65902;51.452;7.198;2023-03-21T00:35:34;14.57;;;7.57;;
76962;SDS011;65902;51.452;7.198;2023-03-21T00:36:35;10.85;;;5.47;;
76962;SDS011;65902;51.452;7.198;2023-03-21T00:37:38;11.90;;;6.82;;
76962;SDS011;65902;51.452;7.198;2023-03-21T00:38:44;13.23;;;6.07;;
76962;SDS011;65902;51.452;7.198;2023-03-21T00:39:47;13.25;;;7.20;;
76962;SDS011;65902;51.452;7.198;2023-03-21T00:40:50;9.65;;;6.43;;
76962;SDS011;65902;51.452;7.198;2023-03-21T00:41:54;9.70;;;5.82;;
76962;SDS011;65902;51.452;7.198;2023-03-21T00:42:54;16.45;;;6.30;;
76962;SDS011;65902;51.452;7.198;2023-03-21T00:43:55;10.60;;;7.30;;
76962;SDS011;65902;51.452;7.198;2023-03-21T00:44:56;9.95;;;6.03;;
76962;SDS011;65902;51.452;7.198;2023-03-21T00:45:57;16.65;;;6.97;;
76962;SDS011;65902;51.452;7.198;2023-03-21T00:46:58;11.07;;;7.55;;
76962;SDS011;65902;51.452;7.198;2023-03-21T00:49:02;10.32;;;5.93;;
76962;SDS011;65902;51.452;7.198;2023-03-21T00:50:05;12.13;;;6.57;;
76962;SDS011;65902;51.452;7.198;2023-03-21T00:51:13;9.30;;;5.97;;
76962;SDS011;65902;51.452;7.198;2023-03-21T00:52:17;13.02;;;6.50;;
76962;SDS011;65902;51.452;7.198;2023-03-21T00:53:18;12.60;;;6.38;;
76962;SDS011;65902;51.452;7.198;2023-03-21T00:54:19;12.20;;;6.38;;
76962;SDS011;65902;51.452;7.198;2023-03-21T00:55:20;13.73;;;6.18;;
76962;SDS011;65902;51.452;7.198;2023-03-21T00:56:21;9.65;;;5.78;;
76962;SDS011;65902;51.452;7.198;2023-03-21T00:57:27;18.42;;;7.25;;
76962;SDS011;65902;51.452;7.198;2023-03-21T00:58:27;17.58;;;7.78;;
76962;SDS011;65902;51.452;7.198;2023-03-21T00:59:28;11.75;;;6.28;;
76962;SDS011;65902;51.452;7.198;2023-03-21T01:00:34;12.73;;;6.65;;
76962;SDS011;65902;51.452;7.198;2023-03-21T01:01:38;10.48;;;6.15;;
76962;SDS011;65902;51.452;7.198;2023-03-21T01:02:38;8.35;;;5.97;;
76962;SDS011;65902;51.452;7.198;2023-03-21T01:03:55;13.52;;;6.65;;
76962;SDS011;65902;51.452;7.198;2023-03-21T01:05:04;9.55;;;5.95;;
76962;SDS011;65902;51.452;7.198;2023-03-21T01:06:08;13.48;;;6.57;;
76962;SDS011;65902;51.452;7.198;2023-03-21T01:07:13;12.70;;;6.18;;
76962;SDS011;65902;51.452;7.198;2023-03-21T01:08:14;12.57;;;6.60;;
76962;SDS011;65902;51.452;7.198;2023-03-21T01:09:22;12.80;;;6.13;;
76962;SDS011;65902;51.452;7.198;2023-03-21T01:10:25;10.93;;;6.20;;
76962;SDS011;65902;51.452;7.198;2023-03-21T01:11:27;13.27;;;6.15;;
76962;SDS011;65902;51.452;7.198;2023-03-21T01:12:27;9.90;;;6.63;;
76962;SDS011;65902;51.452;7.198;2023-03-21T01:14:31;12.20;;;6.55;;
76962;SDS011;65902;51.452;7.198;2023-03-21T01:15:32;8.88;;;5.72;;
76962;SDS011;65902;51.452;7.198;2023-03-21T01:16:35;14.38;;;6.15;;
76962;SDS011;65902;51.452;7.198;2023-03-21T01:17:38;12.50;;;5.90;;
76962;SDS011;65902;51.452;7.198;2023-03-21T01:18:40;12.02;;;5.75;;
76962;SDS011;65902;51.452;7.198;2023-03-21T01:19:41;11.63;;;6.88;;
76962;SDS011;65902;51.452;7.198;2023-03-21T01:20:42;12.80;;;6.82;;
76962;SDS011;65902;51.452;7.198;2023-03-21T01:21:44;13.40;;;5.93;;
76962;SDS011;65902;51.452;7.198;2023-03-21T01:22:45;13.15;;;7.15;;
76962;SDS011;65902;51.452;7.198;2023-03-21T01:23:47;14.55;;;6.43;;
76962;SDS011;65902;51.452;7.198;2023-03-21T01:24:50;15.43;;;7.90;;
76962;SDS011;65902;51.452;7.198;2023-03-21T01:25:51;14.63;;;7.45;;
76962;SDS011;65902;51.452;7.198;2023-03-21T01:26:53;15.13;;;7.47;;
76962;SDS011;65902;51.452;7.198;2023-03-21T01:27:54;12.52;;;6.68;;
76962;SDS011;65902;51.452;7.198;2023-03-21T01:28:55;16.13;;;6.88;;
76962;SDS011;65902;51.452;7.198;2023-03-21T01:29:58;16.23;;;7.40;;
76962;SDS011;65902;51.452;7.198;2023-03-21T01:30:59;12.90;;;6.80;;
76962;SDS011;65902;51.452;7.198;2023-03-21T01:32:01;10.85;;;6.70;;
76962;SDS011;65902;51.452;7.198;2023-03-21T01:33:02;12.43;;;8.35;;
76962;SDS011;65902;51.452;7.198;2023-03-21T01:34:03;11.90;;;7.75;;
76962;SDS011;65902;51.452;7.198;2023-03-21T01:35:03;10.45;;;6.93;;
76962;SDS011;65902;51.452;7.198;2023-03-21T01:37:08;14.25;;;7.35;;
76962;SDS011;65902;51.452;7.198;2023-03-21T01:38:09;17.08;;;7.53;;
76962;SDS011;65902;51.452;7.198;2023-03-21T01:39:10;12.98;;;9.75;;
76962;SDS011;65902;51.452;7.198;2023-03-21T01:40:13;12.52;;;6.90;;
76962;SDS011;65902;51.452;7.198;2023-03-21T01:42:25;12.88;;;6.90;;
76962;SDS011;65902;51.452;7.198;2023-03-21T01:43:35;15.05;;;7.65;;
76962;SDS011;65902;51.452;7.198;2023-03-21T01:44:52;12.50;;;6.32;;
76962;SDS011;65902;51.452;7.198;2023-03-21T01:47:26;14.52;;;7.35;;
76962;SDS011;65902;51.452;7.198;2023-03-21T01:48:29;12.68;;;7.25;;
76962;SDS011;65902;51.452;7.198;2023-03-21T01:49:32;12.18;;;6.03;;
76962;SDS011;65902;51.452;7.198;2023-03-21T01:50:38;14.85;;;8.32;;
76962;SDS011;65902;51.452;7.198;2023-03-21T01:51:41;11.10;;;7.00;;
76962;SDS011;65902;51.452;7.198;2023-03-21T01:52:46;12.32;;;8.20;;
76962;SDS011;65902;51.452;7.198;2023-03-21T01:53:51;9.15;;;6.13;;
76962;SDS011;65902;51.452;7.198;2023-03-21T01:54:51;11.38;;;7.13;;
76962;SDS011;65902;51.452;7.198;2023-03-21T01:55:58;13.57;;;7.72;;
76962;SDS011;65902;51.452;7.198;2023-03-21T01:57:02;14.10;;;7.97;;
76962;SDS011;65902;51.452;7.198;2023-03-21T01:58:05;13.52;;;8.95;;
76962;SDS011;65902;51.452;7.198;2023-03-21T01:59:16;13.18;;;9.00;;
76962;SDS011;65902;51.452;7.198;2023-03-21T02:00:23;11.20;;;7.20;;
76962;SDS011;65902;51.452;7.198;2023-03-21T02:01:28;13.10;;;8.60;;
76962;SDS011;65902;51.452;7.198;2023-03-21T02:03:32;9.98;;;7.82;;
76962;SDS011;65902;51.452;7.198;2023-03-21T02:04:37;16.20;;;9.65;;
76962;SDS011;65902;51.452;7.198;2023-03-21T02:05:48;16.85;;;8.90;;
76962;SDS011;65902;51.452;7.198;2023-03-21T02:06:56;12.43;;;7.63;;
76962;SDS011;65902;51.452;7.198;2023-03-21T02:08:02;17.30;;;8.77;;
76962;SDS011;65902;51.452;7.198;2023-03-21T02:09:08;15.75;;;7.97;;
76962;SDS011;65902;51.452;7.198;2023-03-21T02:10:17;16.48;;;7.95;;
76962;SDS011;65902;51.452;7.198;2023-03-21T02:11:23;14.65;;;9.05;;
76962;SDS011;65902;51.452;7.198;2023-03-21T02:12:26;16.17;;;8.85;;
76962;SDS011;65902;51.452;7.198;2023-03-21T02:13:27;14.88;;;9.82;;
76962;SDS011;65902;51.452;7.198;2023-03-21T02:14:27;14.23;;;9.23;;
76962;SDS011;65902;51.452;7.198;2023-03-21T02:15:30;12.95;;;9.23;;
76962;SDS011;65902;51.452;7.198;2023-03-21T02:16:40;13.50;;;8.27;;
76962;SDS011;65902;51.452;7.198;2023-03-21T02:23:09;14.98;;;7.90;;
76962;SDS011;65902;51.452;7.198;2023-03-21T02:24:17;13.40;;;7.75;;
76962;SDS011;65902;51.452;7.198;2023-03-21T02:26:55;19.83;;;8.15;;
76962;SDS011;65902;51.452;7.198;2023-03-21T02:28:08;13.48;;;8.25;;
76962;SDS011;65902;51.452;7.198;2023-03-21T02:37:25;13.95;;;7.88;;
76962;SDS011;65902;51.452;7.198;2023-03-21T02:39:49;22.08;;;10.27;;
76962;SDS011;65902;51.452;7.198;2023-03-21T02:42:20;18.13;;;9.20;;
76962;SDS011;65902;51.452;7.198;2023-03-21T02:47:45;15.93;;;9.70;;
76962;SDS011;65902;51.452;7.198;2023-03-21T02:49:54;17.85;;;8.15;;
76962;SDS011;65902;51.452;7.198;2023-03-21T02:50:58;13.10;;;8.90;;
76962;SDS011;65902;51.452;7.198;2023-03-21T02:52:02;12.77;;;8.85;;
76962;SDS011;65902;51.452;7.198;2023-03-21T02:53:11;12.95;;;8.30;;
76962;SDS011;65902;51.452;7.198;2023-03-21T02:54:14;14.93;;;8.63;;
76962;SDS011;65902;51.452;7.198;2023-03-21T02:55:21;16.30;;;7.70;;
76962;SDS011;65902;51.452;7.198;2023-03-21T02:56:24;11.80;;;8.15;;
76962;SDS011;65902;51.452;7.198;2023-03-21T02:57:28;13.95;;;8.13;;
76962;SDS011;65902;51.452;7.198;2023-03-21T02:58:32;16.25;;;9.27;;
76962;SDS011;65902;51.452;7.198;2023-03-21T02:59:32;12.25;;;8.55;;
76962;SDS011;65902;51.452;7.198;2023-03-21T03:00:34;17.92;;;8.70;;
76962;SDS011;65902;51.452;7.198;2023-03-21T03:01:38;17.45;;;9.43;;
76962;SDS011;65902;51.452;7.198;2023-03-21T03:02:41;18.27;;;8.70;;
76962;SDS011;65902;51.452;7.198;2023-03-21T03:03:44;19.23;;;9.75;;
76962;SDS011;65902;51.452;7.198;2023-03-21T03:04:46;15.65;;;8.93;;
76962;SDS011;65902;51.452;7.198;2023-03-21T03:05:48;16.30;;;9.73;;
76962;SDS011;65902;51.452;7.198;2023-03-21T03:11:02;14.98;;;9.18;;
76962;SDS011;65902;51.452;7.198;2023-03-21T03:12:17;15.75;;;9.20;;
76962;SDS011;65902;51.452;7.198;2023-03-21T03:15:14;16.58;;;8.75;;
76962;SDS011;65902;51.452;7.198;2023-03-21T03:17:56;16.85;;;9.60;;
76962;SDS011;65902;51.452;7.198;2023-03-21T03:19:34;20.35;;;10.25;;
76962;SDS011;65902;51.452;7.198;2023-03-21T03:20:48;17.40;;;8.52;;
76962;SDS011;65902;51.452;7.198;2023-03-21T03:21:57;17.92;;;9.02;;
76962;SDS011;65902;51.452;7.198;2023-03-21T03:25:17;14.93;;;8.13;;
76962;SDS011;65902;51.452;7.198;2023-03-21T03:26:32;16.30;;;9.43;;
76962;SDS011;65902;51.452;7.198;2023-03-21T03:27:39;17.02;;;8.73;;
76962;SDS011;65902;51.452;7.198;2023-03-21T03:28:50;17.23;;;9.13;;
76962;SDS011;65902;51.452;7.198;2023-03-21T03:29:56;17.08;;;8.07;;
76962;SDS011;65902;51.452;7.198;2023-03-21T03:31:01;16.48;;;9.35;;
76962;SDS011;65902;51.452;7.198;2023-03-21T03:32:09;14.70;;;8.13;;
76962;SDS011;65902;51.452;7.198;2023-03-21T03:33:18;15.82;;;8.57;;
76962;SDS011;65902;51.452;7.198;2023-03-21T03:34:24;16.17;;;9.38;;
76962;SDS011;65902;51.452;7.198;2023-03-21T03:35:29;15.85;;;8.77;;
76962;SDS011;65902;51.452;7.198;2023-03-21T03:36:36;15.60;;;9.18;;
76962;SDS011;65902;51.452;7.198;2023-03-21T03:37:42;13.80;;;9.05;;
76962;SDS011;65902;51.452;7.198;2023-03-21T03:38:45;16.20;;;8.48;;
76962;SDS011;65902;51.452;7.198;2023-03-21T03:40:49;24.17;;;9.98;;
76962;SDS011;65902;51.452;7.198;2023-03-21T03:42:04;13.02;;;8.57;;
76962;SDS011;65902;51.452;7.198;2023-03-21T03:43:08;16.05;;;9.60;;
76962;SDS011;65902;51.452;7.198;2023-03-21T03:44:15;16.20;;;9.02;;
76962;SDS011;65902;51.452;7.198;2023-03-21T03:45:16;17.55;;;8.98;;
76962;SDS011;65902;51.452;7.198;2023-03-21T03:46:18;19.05;;;8.63;;
76962;SDS011;65902;51.452;7.198;2023-03-21T03:48:46;18.55;;;9.48;;
76962;SDS011;65902;51.452;7.198;2023-03-21T03:49:52;17.60;;;10.75;;
76962;SDS011;65902;51.452;7.198;2023-03-21T03:51:08;14.38;;;8.60;;
76962;SDS011;65902;51.452;7.198;2023-03-21T03:52:20;13.90;;;9.52;;
76962;SDS011;65902;51.452;7.198;2023-03-21T03:54:36;14.10;;;8.30;;
76962;SDS011;65902;51.452;7.198;2023-03-21T03:55:41;11.65;;;8.27;;
76962;SDS011;65902;51.452;7.198;2023-03-21T03:56:42;14.40;;;8.82;;
76962;SDS011;65902;51.452;7.198;2023-03-21T03:57:43;15.15;;;8.82;;
76962;SDS011;65902;51.452;7.198;2023-03-21T03:59:52;14.35;;;7.53;;
76962;SDS011;65902;51.452;7.198;2023-03-21T04:00:52;18.02;;;8.07;;
76962;SDS011;65902;51.452;7.198;2023-03-21T04:01:54;11.52;;;7.43;;
76962;SDS011;65902;51.452;7.198;2023-03-21T04:02:57;14.13;;;8.20;;
76962;SDS011;65902;51.452;7.198;2023-03-21T04:03:59;12.65;;;8.38;;
76962;SDS011;65902;51.452;7.198;2023-03-21T04:05:00;13.90;;;9.75;;
76962;SDS011;65902;51.452;7.198;2023-03-21T04:06:00;14.75;;;8.20;;
76962;SDS011;65902;51.452;7.198;2023-03-21T04:07:01;17.40;;;9.13;;
76962;SDS011;65902;51.452;7.198;2023-03-21T04:08:02;14.82;;;8.93;;
76962;SDS011;65902;51.452;7.198;2023-03-21T04:09:05;15.18;;;9.35;;
76962;SDS011;65902;51.452;7.198;2023-03-21T04:10:10;16.38;;;8.68;;
76962;SDS011;65902;51.452;7.198;2023-03-21T04:11:14;18.17;;;8.60;;
76962;SDS011;65902;51.452;7.198;2023-03-21T04:12:17;14.93;;;8.30;;
76962;SDS011;65902;51.452;7.198;2023-03-21T04:13:20;18.02;;;8.60;;
76962;SDS011;65902;51.452;7.198;2023-03-21T04:14:21;14.02;;;9.55;;
76962;SDS011;65902;51.452;7.198;2023-03-21T04:15:23;15.15;;;9.35;;
76962;SDS011;65902;51.452;7.198;2023-03-21T04:16:26;14.32;;;8.07;;
76962;SDS011;65902;51.452;7.198;2023-03-21T04:17:27;15.40;;;8.88;;
76962;SDS011;65902;51.452;7.198;2023-03-21T04:18:28;14.25;;;8.70;;
76962;SDS011;65902;51.452;7.198;2023-03-21T04:19:28;14.35;;;8.63;;
76962;SDS011;65902;51.452;7.198;2023-03-21T04:20:31;13.85;;;8.40;;
76962;SDS011;65902;51.452;7.198;2023-03-21T04:21:32;14.32;;;7.22;;
76962;SDS011;65902;51.452;7.198;2023-03-21T04:22:36;15.98;;;8.52;;
76962;SDS011;65902;51.452;7.198;2023-03-21T04:23:37;14.32;;;7.57;;
76962;SDS011;65902;51.452;7.198;2023-03-21T04:24:39;13.65;;;7.60;;
76962;SDS011;65902;51.452;7.198;2023-03-21T04:25:40;13.50;;;8.35;;
76962;SDS011;65902;51.452;7.198;2023-03-21T04:26:41;15.85;;;8.80;;
76962;SDS011;65902;51.452;7.198;2023-03-21T04:27:44;14.43;;;9.50;;
76962;SDS011;65902;51.452;7.198;2023-03-21T04:28:46;13.70;;;9.13;;
76962;SDS011;65902;51.452;7.198;2023-03-21T04:29:47;13.25;;;8.40;;
76962;SDS011;65902;51.452;7.198;2023-03-21T04:30:53;12.45;;;7.97;;
76962;SDS011;65902;51.452;7.198;2023-03-21T04:31:58;14.05;;;8.10;;
76962;SDS011;65902;51.452;7.198;2023-03-21T04:33:04;17.08;;;9.70;;
76962;SDS011;65902;51.452;7.198;2023-03-21T04:35:09;16.80;;;7.72;;
76962;SDS011;65902;51.452;7.198;2023-03-21T04:36:10;12.40;;;8.05;;
76962;SDS011;65902;51.452;7.198;2023-03-21T04:37:24;13.95;;;8.00;;
76962;SDS011;65902;51.452;7.198;2023-03-21T04:38:27;15.00;;;9.00;;
76962;SDS011;65902;51.452;7.198;2023-03-21T04:39:32;13.43;;;8.43;;
76962;SDS011;65902;51.452;7.198;2023-03-21T04:40:33;17.00;;;8.60;;
76962;SDS011;65902;51.452;7.198;2023-03-21T04:41:34;13.18;;;8.63;;
76962;SDS011;65902;51.452;7.198;2023-03-21T04:43:38;15.00;;;7.28;;
76962;SDS011;65902;51.452;7.198;2023-03-21T04:44:41;15.70;;;8.73;;
76962;SDS011;65902;51.452;7.198;2023-03-21T04:45:42;19.10;;;8.95;;
76962;SDS011;65902;51.452;7.198;2023-03-21T04:46:46;15.38;;;8.52;;
76962;SDS011;65902;51.452;7.198;2023-03-21T04:47:46;15.60;;;9.68;;
76962;SDS011;65902;51.452;7.198;2023-03-21T04:48:47;14.63;;;8.70;;
76962;SDS011;65902;51.452;7.198;2023-03-21T04:49:50;18.73;;;9.45;;
76962;SDS011;65902;51.452;7.198;2023-03-21T04:50:52;21.65;;;9.15;;
76962;SDS011;65902;51.452;7.198;2023-03-21T04:51:53;21.48;;;10.07;;
76962;SDS011;65902;51.452;7.198;2023-03-21T04:52:53;15.00;;;8.55;;
76962;SDS011;65902;51.452;7.198;2023-03-21T04:53:57;19.55;;;11.43;;
76962;SDS011;65902;51.452;7.198;2023-03-21T04:55:00;24.48;;;14.60;;
76962;SDS011;65902;51.452;7.198;2023-03-21T04:56:03;18.83;;;9.25;;
76962;SDS011;65902;51.452;7.198;2023-03-21T04:57:04;17.23;;;10.00;;
76962;SDS011;65902;51.452;7.198;2023-03-21T04:58:06;17.50;;;9.82;;
76962;SDS011;65902;51.452;7.198;2023-03-21T04:59:11;19.30;;;9.75;;
76962;SDS011;65902;51.452;7.198;2023-03-21T05:00:17;21.15;;;14.05;;
76962;SDS011;65902;51.452;7.198;2023-03-21T05:01:20;31.05;;;18.85;;
76962;SDS011;65902;51.452;7.198;2023-03-21T05:02:20;20.20;;;12.63;;
76962;SDS011;65902;51.452;7.198;2023-03-21T05:03:23;16.85;;;10.50;;
76962;SDS011;65902;51.452;7.198;2023-03-21T05:04:35;17.90;;;8.65;;
76962;SDS011;65902;51.452;7.198;2023-03-21T05:05:38;17.02;;;9.52;;
76962;SDS011;65902;51.452;7.198;2023-03-21T05:06:44;14.65;;;9.07;;
76962;SDS011;65902;51.452;7.198;2023-03-21T05:07:45;15.65;;;7.63;;
76962;SDS011;65902;51.452;7.198;2023-03-21T05:08:46;12.93;;;8.40;;
76962;SDS011;65902;51.452;7.198;2023-03-21T05:09:51;19.13;;;9.60;;
76962;SDS011;65902;51.452;7.198;2023-03-21T05:10:54;15.15;;;8.60;;
76962;SDS011;65902;51.452;7.198;2023-03-21T05:13:00;14.30;;;8.68;;
76962;SDS011;65902;51.452;7.198;2023-03-21T05:14:04;13.02;;;7.93;;
76962;SDS011;65902;51.452;7.198;2023-03-21T05:15:08;19.73;;;9.48;;
76962;SDS011;65902;51.452;7.198;2023-03-21T05:16:12;14.60;;;8.98;;
76962;SDS011;65902;51.452;7.198;2023-03-21T05:17:13;16.88;;;9.05;;
76962;SDS011;65902;51.452;7.198;2023-03-21T05:18:24;19.85;;;9.95;;
76962;SDS011;65902;51.452;7.198;2023-03-21T05:19:29;17.15;;;8.15;;
76962;SDS011;65902;51.452;7.198;2023-03-21T05:20:39;14.10;;;8.30;;
76962;SDS011;65902;51.452;7.198;2023-03-21T05:21:43;15.23;;;7.90;;
76962;SDS011;65902;51.452;7.198;2023-03-21T05:22:44;14.00;;;7.70;;
76962;SDS011;65902;51.452;7.198;2023-03-21T05:23:47;17.05;;;8.52;;
76962;SDS011;65902;51.452;7.198;2023-03-21T05:24:55;18.17;;;10.38;;
76962;SDS011;65902;51.452;7.198;2023-03-21T05:25:58;16.23;;;9.32;;
76962;SDS011;65902;51.452;7.198;2023-03-21T05:26:59;15.93;;;9.15;;
76962;SDS011;65902;51.452;7.198;2023-03-21T05:28:01;14.98;;;7.22;;
76962;SDS011;65902;51.452;7.198;2023-03-21T05:29:03;12.43;;;7.80;;
76962;SDS011;65902;51.452;7.198;2023-03-21T05:30:08;13.60;;;7.55;;
76962;SDS011;65902;51.452;7.198;2023-03-21T05:31:17;15.70;;;8.88;;
76962;SDS011;65902;51.452;7.198;2023-03-21T05:32:18;14.27;;;9.23;;
76962;SDS011;65902;51.452;7.198;2023-03-21T05:33:20;14.52;;;9.00;;
76962;SDS011;65902;51.452;7.198;2023-03-21T05:35:24;15.10;;;8.65;;
76962;SDS011;65902;51.452;7.198;2023-03-21T05:36:25;16.02;;;8.35;;
76962;SDS011;65902;51.452;7.198;2023-03-21T05:37:28;16.15;;;9.63;;
76962;SDS011;65902;51.452;7.198;2023-03-21T05:38:29;15.50;;;7.93;;
76962;SDS011;65902;51.452;7.198;2023-03-21T05:39:30;15.43;;;8.10;;
76962;SDS011;65902;51.452;7.198;2023-03-21T05:40:33;15.15;;;8.60;;
76962;SDS011;65902;51.452;7.198;2023-03-21T05:41:33;15.90;;;8.00;;
76962;SDS011;65902;51.452;7.198;2023-03-21T05:42:36;16.48;;;8.40;;
76962;SDS011;65902;51.452;7.198;2023-03-21T05:43:37;15.65;;;8.30;;
76962;SDS011;65902;51.452;7.198;2023-03-21T05:44:38;16.13;;;9.13;;
76962;SDS011;65902;51.452;7.198;2023-03-21T05:45:40;14.27;;;8.07;;
76962;SDS011;65902;51.452;7.198;2023-03-21T05:46:43;14.32;;;8.82;;
76962;SDS011;65902;51.452;7.198;2023-03-21T05:47:44;13.55;;;8.25;;
76962;SDS011;65902;51.452;7.198;2023-03-21T05:48:47;12.93;;;7.40;;
76962;SDS011;65902;51.452;7.198;2023-03-21T05:49:53;14.40;;;8.05;;
76962;SDS011;65902;51.452;7.198;2023-03-21T05:50:54;15.23;;;7.57;;
76962;SDS011;65902;51.452;7.198;2023-03-21T05:51:57;12.73;;;7.38;;
76962;SDS011;65902;51.452;7.198;2023-03-21T05:53:02;16.67;;;8.07;;
76962;SDS011;65902;51.452;7.198;2023-03-21T05:54:07;12.75;;;7.97;;
76962;SDS011;65902;51.452;7.198;2023-03-21T05:55:08;13.23;;;7.72;;
76962;SDS011;65902;51.452;7.198;2023-03-21T05:56:11;13.40;;;8.60;;
76962;SDS011;65902;51.452;7.198;2023-03-21T05:57:16;9.73;;;6.60;;
76962;SDS011;65902;51.452;7.198;2023-03-21T05:58:22;15.52;;;9.45;;
76962;SDS011;65902;51.452;7.198;2023-03-21T05:59:25;16.75;;;7.80;;
76962;SDS011;65902;51.452;7.198;2023-03-21T06:00:28;12.45;;;7.40;;
76962;SDS011;65902;51.452;7.198;2023-03-21T06:01:30;13.57;;;8.00;;
76962;SDS011;65902;51.452;7.198;2023-03-21T06:02:36;14.77;;;8.40;;
76962;SDS011;65902;51.452;7.198;2023-03-21T06:03:38;13.38;;;6.70;;
76962;SDS011;65902;51.452;7.198;2023-03-21T06:04:40;19.13;;;8.43;;
76962;SDS011;65902;51.452;7.198;2023-03-21T06:05:46;15.40;;;7.88;;
76962;SDS011;65902;51.452;7.198;2023-03-21T06:06:49;14.70;;;7.95;;
76962;SDS011;65902;51.452;7.198;2023-03-21T06:07:52;12.00;;;7.70;;
76962;SDS011;65902;51.452;7.198;2023-03-21T06:08:56;9.27;;;6.93;;
76962;SDS011;65902;51.452;7.198;2023-03-21T06:09:59;14.05;;;7.57;;
76962;SDS011;65902;51.452;7.198;2023-03-21T06:11:02;12.60;;;8.13;;
76962;SDS011;65902;51.452;7.198;2023-03-21T06:12:05;11.98;;;7.32;;
76962;SDS011;65902;51.452;7.198;2023-03-21T06:13:08;10.10;;;7.40;;
76962;SDS011;65902;51.452;7.198;2023-03-21T06:15:10;13.57;;;6.93;;
76962;SDS011;65902;51.452;7.198;2023-03-21T06:16:11;12.88;;;7.25;;
76962;SDS011;65902;51.452;7.198;2023-03-21T06:17:15;13.95;;;8.27;;
76962;SDS011;65902;51.452;7.198;2023-03-21T06:18:16;13.93;;;8.27;;
76962;SDS011;65902;51.452;7.198;2023-03-21T06:19:21;12.20;;;7.18;;
76962;SDS011;65902;51.452;7.198;2023-03-21T06:20:24;13.73;;;7.22;;
76962;SDS011;65902;51.452;7.198;2023-03-21T06:21:24;12.13;;;7.63;;
76962;SDS011;65902;51.452;7.198;2023-03-21T06:22:25;14.60;;;7.32;;
76962;SDS011;65902;51.452;7.198;2023-03-21T06:23:27;12.82;;;7.10;;
76962;SDS011;65902;51.452;7.198;2023-03-21T06:24:30;11.68;;;7.95;;
76962;SDS011;65902;51.452;7.198;2023-03-21T06:25:35;12.80;;;7.40;;
76962;SDS011;65902;51.452;7.198;2023-03-21T06:26:38;14.40;;;7.60;;
76962;SDS011;65902;51.452;7.198;2023-03-21T06:27:41;12.82;;;7.25;;
76962;SDS011;65902;51.452;7.198;2023-03-21T06:28:42;11.88;;;6.60;;
76962;SDS011;65902;51.452;7.198;2023-03-21T06:29:45;15.65;;;8.50;;
76962;SDS011;65902;51.452;7.198;2023-03-21T06:30:48;13.18;;;7.40;;
76962;SDS011;65902;51.452;7.198;2023-03-21T06:31:49;12.90;;;8.10;;
76962;SDS011;65902;51.452;7.198;2023-03-21T06:32:50;17.35;;;7.22;;
76962;SDS011;65902;51.452;7.198;2023-03-21T06:33:54;11.73;;;7.30;;
76962;SDS011;65902;51.452;7.198;2023-03-21T06:34:55;15.30;;;6.70;;
76962;SDS011;65902;51.452;7.198;2023-03-21T06:35:56;12.07;;;6.68;;
76962;SDS011;65902;51.452;7.198;2023-03-21T06:36:57;11.68;;;7.13;;
76962;SDS011;65902;51.452;7.198;2023-03-21T06:38:01;10.20;;;6.00;;
76962;SDS011;65902;51.452;7.198;2023-03-21T06:39:05;14.57;;;7.38;;
76962;SDS011;65902;51.452;7.198;2023-03-21T06:40:07;13.27;;;7.55;;
76962;SDS011;65902;51.452;7.198;2023-03-21T06:41:11;11.50;;;7.57;;
76962;SDS011;65902;51.452;7.198;2023-03-21T06:42:14;13.50;;;7.50;;
76962;SDS011;65902;51.452;7.198;2023-03-21T06:43:17;13.30;;;8.32;;
76962;SDS011;65902;51.452;7.198;2023-03-21T06:45:21;13.57;;;7.53;;
76962;SDS011;65902;51.452;7.198;2023-03-21T06:46:23;15.15;;;7.93;;
76962;SDS011;65902;51.452;7.198;2023-03-21T06:47:29;13.48;;;7.82;;
76962;SDS011;65902;51.452;7.198;2023-03-21T06:48:30;13.13;;;6.85;;
76962;SDS011;65902;51.452;7.198;2023-03-21T06:49:33;13.77;;;7.93;;
76962;SDS011;65902;51.452;7.198;2023-03-21T06:50:38;14.05;;;6.35;;
76962;SDS011;65902;51.452;7.198;2023-03-21T06:51:42;9.15;;;6.43;;
76962;SDS011;65902;51.452;7.198;2023-03-21T06:53:50;10.75;;;6.32;;
76962;SDS011;65902;51.452;7.198;2023-03-21T06:54:50;19.35;;;7.97;;
76962;SDS011;65902;51.452;7.198;2023-03-21T06:55:51;12.98;;;7.95;;
76962;SDS011;65902;51.452;7.198;2023-03-21T06:56:53;15.95;;;7.43;;
76962;SDS011;65902;51.452;7.198;2023-03-21T06:57:56;14.05;;;7.45;;
76962;SDS011;65902;51.452;7.198;2023-03-21T06:59:00;12.18;;;7.22;;
76962;SDS011;65902;51.452;7.198;2023-03-21T07:00:02;11.95;;;6.80;;
76962;SDS011;65902;51.452;7.198;2023-03-21T07:02:10;11.27;;;7.65;;
76962;SDS011;65902;51.452;7.198;2023-03-21T07:03:11;12.63;;;6.88;;
76962;SDS011;65902;51.452;7.198;2023-03-21T07:04:15;13.55;;;6.28;;
76962;SDS011;65902;51.452;7.198;2023-03-21T07:05:16;8.77;;;5.90;;
76962;SDS011;65902;51.452;7.198;2023-03-21T07:06:17;14.02;;;5.93;;
76962;SDS011;65902;51.452;7.198;2023-03-21T07:07:18;12.82;;;7.07;;
76962;SDS011;65902;51.452;7.198;2023-03-21T07:08:19;13.10;;;6.72;;
76962;SDS011;65902;51.452;7.198;2023-03-21T07:09:22;11.27;;;6.32;;
76962;SDS011;65902;51.452;7.198;2023-03-21T07:10:27;10.23;;;6.50;;
76962;SDS011;65902;51.452;7.198;2023-03-21T07:11:33;14.98;;;7.15;;
76962;SDS011;65902;51.452;7.198;2023-03-21T07:12:34;10.65;;;6.47;;